Tecumseh, Missouri
Current Conditions -  °F | °C
As of 2:53 AM on Wednesday 22 Oct 2014 (Local Time) from KBPK Reporting Station
Clear Clear  
Wind Chill: 51°   Ceiling: Unl
Heat Index: 51°   Visibility: 10mi
Dew Point: 46°   Wind: 5mph
Humidity: 83%   Direction: 80°E
Pressure: 30.16"   Gusts: NA
Location:  36.59°N, 92.29°W
Report Text: KBPK 220753Z AUTO 08004KT 10SM CLR 11/08 A3016 RMK AO2 SLP206 T01060078
Loading
Personal Weather Stations






























Interactive Weather Map
Tropical Storm Tracking
New forecast layout! Learn more

10-Day Weather Forecast

Advertisements
Track Severe Weather on mobile